LiveATC.Net - Listen to live air traffic control over the Internet!
Airport/ARTCC Code
Frequency Search
(e.g., 124.400, 128.75)
Site-wide search
 


Browse LiveATC Feeds
Top 50 LiveATC Feeds
LiveATC Feed Map
Bad Weather Areas

LiveATC FAQ
Offer LiveATC feed
Contact LiveATC.net
Press Inquiries

LiveATC on iPhone
LiveATC on Android

Windows Phone
Windows 8/10

LiveATC Mobile
(Mobile browser)

ATC Audio Archives
Interesting Recordings

LiveATC Forums

Home Page
About LiveATC.net
Make a Donation
Terms of Use
Privacy Policy

Canadian Air Freqs

AIRMETs/SIGMETs

FAA Airport Status
Nat'l Airspace Status
Arrival Demand Charts


Server Software By:
Icecast.org
Liquidsoap

Select an area of interest:
U.S. Feeds: Class B Airports | Class C Airports | Class D/Other Airports | ARTCC (Centers)
International Feeds: Canada | Europe | Oceania | Asia | South America | North/Central America | Africa
Misc Feeds: HF Feeds
Search by ICAO/IATA airport code:   (e.g., kbos, kjfk, lax, eham, etc.)


Currently Available Live Feeds: 2525
Status Updated: Thu Nov 14 2019 10:03:04 UTC


NOTICE

Unauthorized use prohibited. See LiveATC.net Terms of Service

North and Central America Airport Feeds

 

MDPP App/Dep (Archives)
Puerto Plata, Dominican Republic

Feed Status: UP
Listen in your browser - HTML5 player(in browser, HTML5)
Click here to listen with your own player(launches your MP3 player)

MDPP 140900Z 00000KT 9999 FEW016 22/22 Q1012

MDPP Flight Activity (Flightaware)

Listeners: 0 out of 743 total

Puerto Plata Approach/Departure: 119.000

MDPP Ground/Center (Archives)
Puerto Plata, Dominican Republic

Feed Status: UP
Listen in your browser - HTML5 player(in browser, HTML5)
Click here to listen with your own player(launches your MP3 player)

MDPP 140900Z 00000KT 9999 FEW016 22/22 Q1012

MDPP Flight Activity (Flightaware)

Listeners: 0 out of 743 total

Puerto Plata Ground: 121.900
Puerto Plata Tower: 118.000
Santo Domingo Center: 124.300

MDPP Ground/Tower/Center (Archives)
Puerto Plata, Dominican Republic

Feed Status: UP
Listen in your browser - HTML5 player(in browser, HTML5)
Click here to listen with your own player(launches your MP3 player)

MDPP 140900Z 00000KT 9999 FEW016 22/22 Q1012

MDPP Flight Activity (Flightaware)

Listeners: 0 out of 743 total

Puerto Plata Ground: 121.900
Puerto Plata Tower: 118.000
Santo Domingo Center: 124.300

MDPP Tower (Archives)
Puerto Plata, Dominican Republic

Feed Status: UP
Listen in your browser - HTML5 player(in browser, HTML5)
Click here to listen with your own player(launches your MP3 player)

MDPP 140900Z 00000KT 9999 FEW016 22/22 Q1012

MDPP Flight Activity (Flightaware)

Listeners: 0 out of 743 total


MMAN Tower (Archives)
Monterrey, Mexico

Feed Status: UP
Listen in your browser - HTML5 player(in browser, HTML5)
Click here to listen with your own player(launches your MP3 player)

MMAN 140541Z 00000KT 5SM SCT030 OVC080 06/04 A3011 RMK SLP/// 5//// 9// 8/57/ HZY

MMAN Flight Activity (Flightaware)

Listeners: 0 out of 743 total

Monterrey Tower: 118.600

MMCU Twr/App (Archives)
Chihuahua, Mexico

Feed Status: UP
Listen in your browser - HTML5 player(in browser, HTML5)
Click here to listen with your own player(launches your MP3 player)

MMCU 140510Z 18004KT 0SM FG VV000 05/05 A3014 RMK 8//// MSGTX MMMY

MMCU Flight Activity (Flightaware)

Listeners: 0 out of 743 total

Chihuahua Approach: 121.000
Chihuahua Tower: 118.400

MMGL Twr/App (Archives)
Guadalajara, Mexico

Feed Status: UP
Listen in your browser - HTML5 player(in browser, HTML5)
Click here to listen with your own player(launches your MP3 player)

MMGL 140842Z 00000KT 8SM BKN020 OVC090 14/13 A3020 RMK SLP132 57006 909 8/57/

MMGL Flight Activity (Flightaware)

Listeners: 1 out of 743 total

Guadalajara Approach: 120.800
Guadalajara Tower: 118.100

MMHO App/Dep
Hermosillo, Mexico

Feed Status: DOWN
Offline since: 2019-11-14 10:01:05 UTC

MMHO 140940Z 00000KT 10SM SKC 17/14 A3002 RMK HZY

Hermosillo Approach/Departure: 121.400

MMHO Tower
Hermosillo, Mexico

Feed Status: DOWN
Offline since: 2019-11-14 10:01:05 UTC

MMHO 140940Z 00000KT 10SM SKC 17/14 A3002 RMK HZY

Hermosillo Tower: 118.700

MMLP Twr/App/Center (Archives)
La Paz, Mexico

Feed Status: UP
Listen in your browser - HTML5 player(in browser, HTML5)
Click here to listen with your own player(launches your MP3 player)

MMLP 140541Z 00000KT 10SM SKC 19/16 A3001 RMK SLP161 52008 910

MMLP Flight Activity (Flightaware)

Listeners: 0 out of 743 total

La Paz Approach: 120.600
La Paz Tower: 118.100
Mazatlan Center: 128.000
Mazatlan Center: 124.400
Mazatlan Center: 128.300
Mazatlan Center: 124.200
Mazatlan Center: 126.300
Mazatlan Center: 126.500
San Jose Approach: 120.900

MMMD Tower/Approach (Archives)
Merida, Mexico

Feed Status: UP
Listen in your browser - HTML5 player(in browser, HTML5)
Click here to listen with your own player(launches your MP3 player)

MMMD 140948Z 07003KT 7SM BKN004 OVC030 24/23 A2994 RMK 8/5//

MMMD Flight Activity (Flightaware)

Listeners: 0 out of 743 total

Merida Approach: 121.200
Merida Tower: 118.300

MMMM Tower
Morelia, Mexico

Feed Status: DOWN
Offline since: 2019-11-09 18:06:23 UTC

MMMM 140841Z 00000KT 7SM OVC090 14/12 A3023 RMK SLP114 57008 905 8/07/

Morelia Tower: 118.500

MMMX Approach (Archives)
Mexico City, Mexico

Feed Status: UP
Listen in your browser - HTML5 player(in browser, HTML5)
Click here to listen with your own player(launches your MP3 player)

MMMX 140940Z 00000KT 15SM FEW020 BKN080 14/07 A3030 NOSIG RMK 8/530 CI

MMMX Flight Activity (Flightaware)

Listeners: 0 out of 743 total

Mexico City Approach: 121.200

MMMX Twr/App (Archives)
Mexico City, Mexico

Feed Status: UP
Listen in your browser - HTML5 player(in browser, HTML5)
Click here to listen with your own player(launches your MP3 player)

MMMX 140940Z 00000KT 15SM FEW020 BKN080 14/07 A3030 NOSIG RMK 8/530 CI

MMMX Flight Activity (Flightaware)

Listeners: 4 out of 743 total

Mexico City Approach: 121.200
Mexico City Final Approach: 119.750
Mexico City Helicopters: 118.150
Mexico City Terminal: 129.600
Mexico City Tower: 118.550

MMMY Tower/Approach (Archives)
Monterrey, Mexico

Feed Status: UP
Listen in your browser - HTML5 player(in browser, HTML5)
Click here to listen with your own player(launches your MP3 player)

MMMY 140945Z 00000KT 7SM SKC 04/03 A3004

MMMY Flight Activity (Flightaware)

Listeners: 0 out of 743 total

Monterrey Approach/Departure: 119.750
Monterrey Tower: 118.100

MMQT Tower/App (Archives)
Queretaro, Mexico

Feed Status: UP
Listen in your browser - HTML5 player(in browser, HTML5)
Click here to listen with your own player(launches your MP3 player)

MMQT 140942Z 08008KT 8SM BKN020 14/11 A3028 RMK 8/500

MMQT Flight Activity (Flightaware)

Listeners: 0 out of 743 total

Queretaro Approach: 127.200
Queretaro Tower: 118.950

MMSP Gnd/Twr/App/Center (Archives)
San Luis Potosi, Mexico

Feed Status: UP
Listen in your browser - HTML5 player(in browser, HTML5)
Click here to listen with your own player(launches your MP3 player)

MMSP 140949Z 00000KT 6SM FEW003 BKN013 OVC020 09/08 A3022 RMK 60025 8/5// -RA E37 HZY

MMSP Flight Activity (Flightaware)

Listeners: 0 out of 743 total

AMX Ground Ops: 131.000
Mexico Center (North, Sector 6): 126.000
Mexico Center (Northwest, Sector 7): 123.900
Mexico Center (West, Sector 5): 125.100
Potosi Approach: 127.500
Potosi Tower: 118.900
TAO Ground Ops: 133.600

MMTC Twr/App/Center (Archives)
Torreon, Mexico

Feed Status: UP
Listen in your browser - HTML5 player(in browser, HTML5)
Click here to listen with your own player(launches your MP3 player)

MMTC 140340Z 33006KT 2 1/2SM BR BKN010 BKN070 11/09 A3015 RMK 8/570

MMTC Flight Activity (Flightaware)

Listeners: 1 out of 743 total

Mazatlan Center: 124.200
Mazatlan Center: 124.400
Mazatlan Center: 128.000
Mexico Center: 123.900
Monterrey Center: 125.600
Monterrey Center: 125.425
Monterrey Center: 127.400
Torreon Approach: 119.500
Torreon Tower: 118.500

MMTJ Approach (Archives)
Tijuana, Mexico

Feed Status: UP
Listen in your browser - HTML5 player(in browser, HTML5)
Click here to listen with your own player(launches your MP3 player)

MMTJ 140941Z 00000KT 4SM SKC 11/11 A3007 RMK HZY ST-W

MMTJ Flight Activity (Flightaware)

Listeners: 0 out of 743 total

Tijuana Approach: 120.300

MMTJ Twr/Ramp (Archives)
Tijuana, Mexico

Feed Status: UP
Listen in your browser - HTML5 player(in browser, HTML5)
Click here to listen with your own player(launches your MP3 player)

MMTJ 140941Z 00000KT 4SM SKC 11/11 A3007 RMK HZY ST-W

MMTJ Flight Activity (Flightaware)

Listeners: 1 out of 743 total

Tijuana Ramp: 126.100
Tijuana Tower: 118.100

MUFH Havana FIR (App/Center) (Archives)
Havana, Cuba

Feed Status: UP
Listen in your browser - HTML5 player(in browser, HTML5)
Click here to listen with your own player(launches your MP3 player)

MUFH Flight Activity (Flightaware)

Listeners: 0 out of 743 total

Hava Approach: 120.300
Havana Center: 120.250
Havana Center: 123.700
Havana Center: 124.550
Havana Center: 133.700
Havana Center: 135.100

TBPB Gnd/Twr/Radar/Center (Archives)
Bridgetown, Barbados

Feed Status: UP
Listen in your browser - HTML5 player(in browser, HTML5)
Click here to listen with your own player(launches your MP3 player)

TBPB 140900Z 08006KT 9999 SCT016 25/23 Q1011 NOSIG

TBPB Flight Activity (Flightaware)

Listeners: 0 out of 743 total

Adams Approach/Departure: 129.350
Adams Approach/Departure: 128.850
Adams Ground: 121.900
Adams Tower: 118.700
Piarco Center: 123.700

TXKF Tower/Ground
Hamilton, Bermuda

Feed Status: DOWN
Offline since: 2019-10-27 17:31:06 UTC

TXKF 140955Z 02016KT 6000 -SHRA SCT009 BKN015 OVC043 18/16 Q1020

Bermuda CTAF: 122.800
Bermuda Ground/Clearance: 124.500
Bermuda Tower: 118.100

ZNY Bermuda Sector
Hamilton, Bermuda

Feed Status: DOWN
Offline since: 2019-10-27 17:31:06 UTC

TXKF 140955Z 02016KT 6000 -SHRA SCT009 BKN015 OVC043 18/16 Q1020

New York Approach (Bermuda Sector) : 119.100
New York Center (Bermuda Sector): 128.500

MGGT Gnd/Twr (Archives)
Guatemala City, Guatemala

Feed Status: UP
Listen in your browser - HTML5 player(in browser, HTML5)
Click here to listen with your own player(launches your MP3 player)

MGGT 141000Z 04004KT 9999 FEW012 16/14 Q1024 A3024

MGGT Flight Activity (Flightaware)

Listeners: 0 out of 743 total

Guatemala City Ground: 121.900
Guatemala City Tower: 118.100

MGGT Ground (Archives)
Guatemala City, Guatemala

Feed Status: UP
Listen in your browser - HTML5 player(in browser, HTML5)
Click here to listen with your own player(launches your MP3 player)

MGGT 141000Z 04004KT 9999 FEW012 16/14 Q1024 A3024

MGGT Flight Activity (Flightaware)

Listeners: 0 out of 743 total

Guatemala City Ground: 121.900

MGGT Tower (Archives)
Guatemala City, Guatemala

Feed Status: UP
Listen in your browser - HTML5 player(in browser, HTML5)
Click here to listen with your own player(launches your MP3 player)

MGGT 141000Z 04004KT 9999 FEW012 16/14 Q1024 A3024

MGGT Flight Activity (Flightaware)

Listeners: 0 out of 743 total

Guatemala City Tower: 118.100

MHLC Gnd/Twr/Center (Archives)
La Ceiba, Honduras

Feed Status: UP
Listen in your browser - HTML5 player(in browser, HTML5)
Click here to listen with your own player(launches your MP3 player)

MHLC 140600Z 00000KT 9999 FEW024 22/21 Q1013 A2994 NOSIG

MHLC Flight Activity (Flightaware)

Listeners: 0 out of 743 total

CENAMER: 123.900
CENAMER: 124.300
Goloson Ground: 121.900
Goloson Tower: 118.500
La Ceiba Radio: 128.900

MHRO Gnd/Twr/App/Center (Archives)
Roatan, Honduras

Feed Status: UP
Listen in your browser - HTML5 player(in browser, HTML5)
Click here to listen with your own player(launches your MP3 player)

MHRO 140200Z 00000KT 9999 FEW020 SCT080 25/23 Q1013 A2992 NOSIG

MHRO Flight Activity (Flightaware)

Listeners: 0 out of 743 total

CENAMER (Center): 124.300
La Ceiba Radio: 128.900
Roatan Ground: 121.600
Roatan Tower: 118.100

MHTG ATIS (Archives)
Tegucigalpa, Honduras

Feed Status: UP
Listen in your browser - HTML5 player(in browser, HTML5)
Click here to listen with your own player(launches your MP3 player)

MHTG 140900Z 00000KT 9999 SCT026 14/14 Q1020 A3012 NOSIG

MHTG Flight Activity (Flightaware)

Listeners: 0 out of 743 total

Toncontin ATIS: 127.750

MHTG Gnd/Twr/App/Ctr/Ops (Archives)
Tegucigalpa, Honduras

Feed Status: UP
Listen in your browser - HTML5 player(in browser, HTML5)
Click here to listen with your own player(launches your MP3 player)

MHTG 140900Z 00000KT 9999 SCT026 14/14 Q1020 A3012 NOSIG

MHTG Flight Activity (Flightaware)

Listeners: 1 out of 743 total

American Airlines Ops: 130.700
ARINC ACARS: 131.550
Cenamer Center: 123.900
Cenamer Center: 124.300
Cenamer Center: 124.100
CMP Ops: 129.925
Continental Airlines Ops: 129.925
FAH Ground: 122.900
Taca Ops: 131.300
Taca Ops Sal: 130.300
Tecnologias Unidas: 133.000
Tegucigalpa RDO: 126.700
Toncontin Approach: 119.100
Toncontin Ground: 121.900
Toncontin Tower: 118.700

MROC Del/Gnd/Twr (Archives)
San Jose, Costa Rica

Feed Status: UP
Listen in your browser - HTML5 player(in browser, HTML5)
Click here to listen with your own player(launches your MP3 player)

MROC 140900Z 00000KT 9999 1500SW VCFG SCT002 BKN120 19/19 A2999 NOSIG

MROC Flight Activity (Flightaware)

Listeners: 0 out of 743 total

Coco Clearance Delivery/Ground: 121.900
Coco Tower: 118.600

MROC Del/Gnd/Twr/App/Center/Misc (Archives)
San Jose, Costa Rica

Feed Status: UP
Listen in your browser - HTML5 player(in browser, HTML5)
Click here to listen with your own player(launches your MP3 player)

MROC 140900Z 00000KT 9999 1500SW VCFG SCT002 BKN120 19/19 A2999 NOSIG

MROC Flight Activity (Flightaware)

Listeners: 4 out of 743 total

Central American Center (CENAMER Control): 124.100
Coco Center (Control over CR Airspace): 119.600
Coco Clearance Delivery: 121.300
Coco Ground: 121.900
Coco Terminal Control: 120.500
Coco Tower: 118.600
Coco UNICOM: 126.800
SYQ Ground: 121.700
SYQ Tower: 118.300

MSLP Gnd/Twr/App (Archives)
San Salvador, El Salvador

Feed Status: UP
Listen in your browser - HTML5 player(in browser, HTML5)
Click here to listen with your own player(launches your MP3 player)

MSLP 140950Z 09003KT 9999 BKN037 25/23 Q1011 A2986 NOSIG

MSLP Flight Activity (Flightaware)

Listeners: 0 out of 743 total

Comalapa Ground: 121.700
Comalapa Tower: 118.000
Compalapa Approach: 119.900

MSLP Gnd/Twr/App/Center (Archives)
San Salvador, El Salvador

Feed Status: UP
Listen in your browser - HTML5 player(in browser, HTML5)
Click here to listen with your own player(launches your MP3 player)

MSLP 140950Z 09003KT 9999 BKN037 25/23 Q1011 A2986 NOSIG

MSLP Flight Activity (Flightaware)

Listeners: 0 out of 743 total

Avianca Ops: 123.500
CCA: 119.300
CENAMER: 124.100
Comalapa Authorizations: 121.250
Comalapa Departure: 123.900
Comalapa Ground: 121.700
Comalapa Tower: 118.000
Compalapa Approach: 119.900
Ilopango Tower: 118.300
TACA Ops: 130.500

MSSS Tower
San Salvador, El Salvador

Feed Status: DOWN
Offline since: 2019-11-12 03:27:40 UTC

MSSS 140550Z 20002KT CAVOK 22/21 Q1017 A3004

Ilopango Tower: 118.300